sensor_id;sensor_type;location;lat;lon;timestamp;temperature;humidity
36800;DHT22;22752;51.960;5.886;2023-04-12T00:02:23;10.90;99.90
36800;DHT22;22752;51.960;5.886;2023-04-12T00:04:49;10.80;99.90
36800;DHT22;22752;51.960;5.886;2023-04-12T00:07:23;10.80;99.90
36800;DHT22;22752;51.960;5.886;2023-04-12T00:09:49;10.80;99.90
36800;DHT22;22752;51.960;5.886;2023-04-12T00:12:16;10.70;99.90
36800;DHT22;22752;51.960;5.886;2023-04-12T00:14:42;10.70;99.90
36800;DHT22;22752;51.960;5.886;2023-04-12T00:17:08;10.60;99.90
36800;DHT22;22752;51.960;5.886;2023-04-12T00:19:33;10.60;99.90
36800;DHT22;22752;51.960;5.886;2023-04-12T00:21:59;10.50;99.90
36800;DHT22;22752;51.960;5.886;2023-04-12T00:24:25;10.50;99.90
36800;DHT22;22752;51.960;5.886;2023-04-12T00:26:51;10.40;99.90
36800;DHT22;22752;51.960;5.886;2023-04-12T00:29:16;10.40;99.90
36800;DHT22;22752;51.960;5.886;2023-04-12T00:31:42;10.30;99.90
36800;DHT22;22752;51.960;5.886;2023-04-12T00:34:08;10.30;99.90
36800;DHT22;22752;51.960;5.886;2023-04-12T00:36:33;10.30;99.90
36800;DHT22;22752;51.960;5.886;2023-04-12T00:38:59;10.30;99.90
36800;DHT22;22752;51.960;5.886;2023-04-12T00:41:25;10.30;99.90
36800;DHT22;22752;51.960;5.886;2023-04-12T00:43:51;10.20;99.90
36800;DHT22;22752;51.960;5.886;2023-04-12T00:46:17;10.20;99.90
36800;DHT22;22752;51.960;5.886;2023-04-12T00:48:43;10.10;99.90
36800;DHT22;22752;51.960;5.886;2023-04-12T00:51:12;10.10;99.90
36800;DHT22;22752;51.960;5.886;2023-04-12T00:53:39;10.00;99.90
36800;DHT22;22752;51.960;5.886;2023-04-12T00:56:05;10.00;99.90
36800;DHT22;22752;51.960;5.886;2023-04-12T00:58:32;10.00;99.90
36800;DHT22;22752;51.960;5.886;2023-04-12T01:00:58;10.00;99.90
36800;DHT22;22752;51.960;5.886;2023-04-12T01:03:24;10.00;99.90
36800;DHT22;22752;51.960;5.886;2023-04-12T01:08:38;9.90;99.90
36800;DHT22;22752;51.960;5.886;2023-04-12T01:11:19;9.80;99.90
36800;DHT22;22752;51.960;5.886;2023-04-12T01:13:50;9.80;99.90
36800;DHT22;22752;51.960;5.886;2023-04-12T01:16:30;9.80;99.90
36800;DHT22;22752;51.960;5.886;2023-04-12T01:19:06;9.80;99.90
36800;DHT22;22752;51.960;5.886;2023-04-12T01:22:15;9.80;99.90
36800;DHT22;22752;51.960;5.886;2023-04-12T01:27:44;9.80;99.90
36800;DHT22;22752;51.960;5.886;2023-04-12T01:30:12;9.70;99.90
36800;DHT22;22752;51.960;5.886;2023-04-12T01:32:39;9.60;99.90
36800;DHT22;22752;51.960;5.886;2023-04-12T01:35:07;9.70;99.90
36800;DHT22;22752;51.960;5.886;2023-04-12T01:37:35;9.60;99.90
36800;DHT22;22752;51.960;5.886;2023-04-12T01:40:01;9.60;99.90
36800;DHT22;22752;51.960;5.886;2023-04-12T01:42:30;9.60;99.90
36800;DHT22;22752;51.960;5.886;2023-04-12T01:44:56;9.60;99.90
36800;DHT22;22752;51.960;5.886;2023-04-12T01:47:22;9.60;99.90
36800;DHT22;22752;51.960;5.886;2023-04-12T01:55:25;9.50;99.90
36800;DHT22;22752;51.960;5.886;2023-04-12T01:57:54;9.50;99.90
36800;DHT22;22752;51.960;5.886;2023-04-12T02:00:21;9.50;99.90
36800;DHT22;22752;51.960;5.886;2023-04-12T02:02:47;9.50;99.90
36800;DHT22;22752;51.960;5.886;2023-04-12T02:05:13;9.50;99.90
36800;DHT22;22752;51.960;5.886;2023-04-12T02:07:40;9.50;99.90
36800;DHT22;22752;51.960;5.886;2023-04-12T02:10:06;9.40;99.90
36800;DHT22;22752;51.960;5.886;2023-04-12T02:12:32;9.40;99.90
36800;DHT22;22752;51.960;5.886;2023-04-12T02:14:57;9.40;99.90
36800;DHT22;22752;51.960;5.886;2023-04-12T02:17:24;9.40;99.90
36800;DHT22;22752;51.960;5.886;2023-04-12T02:19:50;9.40;99.90
36800;DHT22;22752;51.960;5.886;2023-04-12T02:22:15;9.40;99.90
36800;DHT22;22752;51.960;5.886;2023-04-12T02:24:41;9.40;99.90
36800;DHT22;22752;51.960;5.886;2023-04-12T02:27:07;9.30;99.90
36800;DHT22;22752;51.960;5.886;2023-04-12T02:29:32;9.40;99.90
36800;DHT22;22752;51.960;5.886;2023-04-12T02:31:58;9.30;99.90
36800;DHT22;22752;51.960;5.886;2023-04-12T02:34:23;9.30;99.90
36800;DHT22;22752;51.960;5.886;2023-04-12T02:36:49;9.30;99.90
36800;DHT22;22752;51.960;5.886;2023-04-12T02:39:15;9.30;99.90
36800;DHT22;22752;51.960;5.886;2023-04-12T02:41:46;9.30;99.90
36800;DHT22;22752;51.960;5.886;2023-04-12T02:44:12;9.20;99.90
36800;DHT22;22752;51.960;5.886;2023-04-12T02:46:37;9.20;99.90
36800;DHT22;22752;51.960;5.886;2023-04-12T02:49:03;9.20;99.90
36800;DHT22;22752;51.960;5.886;2023-04-12T02:51:29;9.20;99.90
36800;DHT22;22752;51.960;5.886;2023-04-12T02:53:55;9.20;99.90
36800;DHT22;22752;51.960;5.886;2023-04-12T02:56:21;9.20;99.90
36800;DHT22;22752;51.960;5.886;2023-04-12T02:58:49;9.20;99.90
36800;DHT22;22752;51.960;5.886;2023-04-12T03:01:14;9.20;99.90
36800;DHT22;22752;51.960;5.886;2023-04-12T03:03:41;9.20;99.90
36800;DHT22;22752;51.960;5.886;2023-04-12T03:06:07;9.20;99.90
36800;DHT22;22752;51.960;5.886;2023-04-12T03:08:33;9.20;99.90
36800;DHT22;22752;51.960;5.886;2023-04-12T03:11:00;9.20;99.90
36800;DHT22;22752;51.960;5.886;2023-04-12T03:13:26;9.20;99.90
36800;DHT22;22752;51.960;5.886;2023-04-12T03:15:54;9.20;99.90
36800;DHT22;22752;51.960;5.886;2023-04-12T03:18:21;9.20;99.90
36800;DHT22;22752;51.960;5.886;2023-04-12T03:20:48;9.20;99.90
36800;DHT22;22752;51.960;5.886;2023-04-12T03:23:14;9.20;99.90
36800;DHT22;22752;51.960;5.886;2023-04-12T03:25:40;9.20;99.90
36800;DHT22;22752;51.960;5.886;2023-04-12T03:28:07;9.20;99.90
36800;DHT22;22752;51.960;5.886;2023-04-12T03:30:33;9.20;99.90
36800;DHT22;22752;51.960;5.886;2023-04-12T03:32:59;9.10;99.90
36800;DHT22;22752;51.960;5.886;2023-04-12T03:35:25;9.10;99.90
36800;DHT22;22752;51.960;5.886;2023-04-12T03:37:50;9.10;99.90
36800;DHT22;22752;51.960;5.886;2023-04-12T03:40:16;9.00;99.90
36800;DHT22;22752;51.960;5.886;2023-04-12T03:42:42;9.10;99.90
36800;DHT22;22752;51.960;5.886;2023-04-12T03:45:07;9.00;99.90
36800;DHT22;22752;51.960;5.886;2023-04-12T03:47:33;9.00;99.90
36800;DHT22;22752;51.960;5.886;2023-04-12T03:50:03;9.10;99.90
36800;DHT22;22752;51.960;5.886;2023-04-12T03:52:32;9.00;99.90
36800;DHT22;22752;51.960;5.886;2023-04-12T03:54:58;9.00;99.90
36800;DHT22;22752;51.960;5.886;2023-04-12T03:57:24;9.00;99.90
36800;DHT22;22752;51.960;5.886;2023-04-12T03:59:50;9.00;99.90
36800;DHT22;22752;51.960;5.886;2023-04-12T04:02:16;9.00;99.90
36800;DHT22;22752;51.960;5.886;2023-04-12T04:04:42;9.00;99.90
36800;DHT22;22752;51.960;5.886;2023-04-12T04:07:08;8.90;99.90
36800;DHT22;22752;51.960;5.886;2023-04-12T04:09:33;8.90;99.90
36800;DHT22;22752;51.960;5.886;2023-04-12T04:11:59;8.90;99.90
36800;DHT22;22752;51.960;5.886;2023-04-12T04:14:26;8.90;99.90
36800;DHT22;22752;51.960;5.886;2023-04-12T04:16:52;8.90;99.90
36800;DHT22;22752;51.960;5.886;2023-04-12T04:19:18;8.90;99.90
36800;DHT22;22752;51.960;5.886;2023-04-12T04:21:44;8.80;99.90
36800;DHT22;22752;51.960;5.886;2023-04-12T04:24:09;8.80;99.90
36800;DHT22;22752;51.960;5.886;2023-04-12T04:26:36;8.80;99.90
36800;DHT22;22752;51.960;5.886;2023-04-12T04:29:03;8.80;99.90
36800;DHT22;22752;51.960;5.886;2023-04-12T04:31:30;8.80;99.90
36800;DHT22;22752;51.960;5.886;2023-04-12T04:34:03;8.70;99.90
36800;DHT22;22752;51.960;5.886;2023-04-12T04:36:32;8.80;99.90
36800;DHT22;22752;51.960;5.886;2023-04-12T04:38:58;8.70;99.90
36800;DHT22;22752;51.960;5.886;2023-04-12T04:41:24;8.70;99.90
36800;DHT22;22752;51.960;5.886;2023-04-12T04:43:50;8.70;99.90
36800;DHT22;22752;51.960;5.886;2023-04-12T04:46:16;8.70;99.90
36800;DHT22;22752;51.960;5.886;2023-04-12T04:48:46;8.70;99.90
36800;DHT22;22752;51.960;5.886;2023-04-12T04:51:12;8.70;99.90
36800;DHT22;22752;51.960;5.886;2023-04-12T04:53:39;8.70;99.90
36800;DHT22;22752;51.960;5.886;2023-04-12T04:56:05;8.70;99.90
36800;DHT22;22752;51.960;5.886;2023-04-12T04:58:32;8.70;99.90
36800;DHT22;22752;51.960;5.886;2023-04-12T05:00:58;8.70;99.90
36800;DHT22;22752;51.960;5.886;2023-04-12T05:03:24;8.70;99.90
36800;DHT22;22752;51.960;5.886;2023-04-12T05:05:54;8.70;99.90
36800;DHT22;22752;51.960;5.886;2023-04-12T05:08:23;8.70;99.90
36800;DHT22;22752;51.960;5.886;2023-04-12T05:10:52;8.60;99.90
36800;DHT22;22752;51.960;5.886;2023-04-12T05:13:18;8.70;99.90
36800;DHT22;22752;51.960;5.886;2023-04-12T05:15:44;8.70;99.90
36800;DHT22;22752;51.960;5.886;2023-04-12T05:18:09;8.70;99.90
36800;DHT22;22752;51.960;5.886;2023-04-12T05:20:37;8.70;99.90
36800;DHT22;22752;51.960;5.886;2023-04-12T05:23:03;8.70;99.90
36800;DHT22;22752;51.960;5.886;2023-04-12T05:25:28;8.70;99.90
36800;DHT22;22752;51.960;5.886;2023-04-12T05:27:54;8.70;99.90
36800;DHT22;22752;51.960;5.886;2023-04-12T05:30:20;8.70;99.90
36800;DHT22;22752;51.960;5.886;2023-04-12T05:32:45;8.70;99.90
36800;DHT22;22752;51.960;5.886;2023-04-12T05:35:11;8.70;99.90
36800;DHT22;22752;51.960;5.886;2023-04-12T05:37:37;8.80;99.90
36800;DHT22;22752;51.960;5.886;2023-04-12T05:40:03;8.80;99.90
36800;DHT22;22752;51.960;5.886;2023-04-12T05:42:33;8.80;99.90
36800;DHT22;22752;51.960;5.886;2023-04-12T05:44:59;8.80;99.90
36800;DHT22;22752;51.960;5.886;2023-04-12T05:47:25;8.80;99.90
36800;DHT22;22752;51.960;5.886;2023-04-12T05:49:52;8.80;99.90
36800;DHT22;22752;51.960;5.886;2023-04-12T05:52:18;8.80;99.90
36800;DHT22;22752;51.960;5.886;2023-04-12T05:54:44;8.80;99.90
36800;DHT22;22752;51.960;5.886;2023-04-12T05:57:09;8.80;99.90
36800;DHT22;22752;51.960;5.886;2023-04-12T05:59:36;8.80;99.90
36800;DHT22;22752;51.960;5.886;2023-04-12T06:02:02;8.80;99.90
36800;DHT22;22752;51.960;5.886;2023-04-12T06:04:28;8.80;99.90
36800;DHT22;22752;51.960;5.886;2023-04-12T06:06:53;8.80;99.90
36800;DHT22;22752;51.960;5.886;2023-04-12T06:09:20;8.90;99.90
36800;DHT22;22752;51.960;5.886;2023-04-12T06:11:46;8.90;99.90
36800;DHT22;22752;51.960;5.886;2023-04-12T06:14:12;8.90;99.90
36800;DHT22;22752;51.960;5.886;2023-04-12T06:16:37;8.90;99.90
36800;DHT22;22752;51.960;5.886;2023-04-12T06:19:03;8.90;99.90
36800;DHT22;22752;51.960;5.886;2023-04-12T06:21:29;8.90;99.90
36800;DHT22;22752;51.960;5.886;2023-04-12T06:23:55;8.90;99.90
36800;DHT22;22752;51.960;5.886;2023-04-12T06:26:21;9.00;99.90
36800;DHT22;22752;51.960;5.886;2023-04-12T06:28:47;9.00;99.90
36800;DHT22;22752;51.960;5.886;2023-04-12T06:31:14;9.00;99.90
36800;DHT22;22752;51.960;5.886;2023-04-12T06:33:40;9.00;99.90
36800;DHT22;22752;51.960;5.886;2023-04-12T06:36:06;9.00;99.90
36800;DHT22;22752;51.960;5.886;2023-04-12T06:38:32;9.00;99.90
36800;DHT22;22752;51.960;5.886;2023-04-12T06:40:58;9.10;99.90
36800;DHT22;22752;51.960;5.886;2023-04-12T06:43:24;9.10;99.90
36800;DHT22;22752;51.960;5.886;2023-04-12T06:45:50;9.00;99.90
36800;DHT22;22752;51.960;5.886;2023-04-12T06:48:16;9.10;99.90
36800;DHT22;22752;51.960;5.886;2023-04-12T06:50:42;9.10;99.90
36800;DHT22;22752;51.960;5.886;2023-04-12T06:53:08;9.10;99.90
36800;DHT22;22752;51.960;5.886;2023-04-12T06:55:34;9.20;99.90
36800;DHT22;22752;51.960;5.886;2023-04-12T06:58:00;9.20;99.90
36800;DHT22;22752;51.960;5.886;2023-04-12T07:00:25;9.20;99.90
36800;DHT22;22752;51.960;5.886;2023-04-12T07:02:51;9.20;99.90
36800;DHT22;22752;51.960;5.886;2023-04-12T07:05:17;9.30;99.90
36800;DHT22;22752;51.960;5.886;2023-04-12T07:07:43;9.30;99.90
36800;DHT22;22752;51.960;5.886;2023-04-12T07:10:09;9.30;99.90
36800;DHT22;22752;51.960;5.886;2023-04-12T07:12:35;9.40;99.90
36800;DHT22;22752;51.960;5.886;2023-04-12T07:15:01;9.40;99.90
36800;DHT22;22752;51.960;5.886;2023-04-12T07:17:26;9.40;99.90
36800;DHT22;22752;51.960;5.886;2023-04-12T07:19:55;9.40;99.90
36800;DHT22;22752;51.960;5.886;2023-04-12T07:22:22;9.40;99.90
36800;DHT22;22752;51.960;5.886;2023-04-12T07:24:51;9.40;99.90
36800;DHT22;22752;51.960;5.886;2023-04-12T07:27:17;9.50;99.90
36800;DHT22;22752;51.960;5.886;2023-04-12T07:29:42;9.60;99.90
36800;DHT22;22752;51.960;5.886;2023-04-12T07:32:09;9.60;99.90
36800;DHT22;22752;51.960;5.886;2023-04-12T07:34:35;9.60;99.90
36800;DHT22;22752;51.960;5.886;2023-04-12T07:37:02;9.70;99.90
36800;DHT22;22752;51.960;5.886;2023-04-12T07:39:28;9.80;99.90
36800;DHT22;22752;51.960;5.886;2023-04-12T07:41:54;9.80;99.90
36800;DHT22;22752;51.960;5.886;2023-04-12T07:44:20;9.90;99.90
36800;DHT22;22752;51.960;5.886;2023-04-12T07:46:46;9.90;99.90
36800;DHT22;22752;51.960;5.886;2023-04-12T07:49:12;9.90;99.90
36800;DHT22;22752;51.960;5.886;2023-04-12T07:51:38;9.90;99.90
36800;DHT22;22752;51.960;5.886;2023-04-12T07:54:03;9.90;99.90
36800;DHT22;22752;51.960;5.886;2023-04-12T07:56:32;9.90;99.90
36800;DHT22;22752;51.960;5.886;2023-04-12T07:58:58;10.00;99.90
36800;DHT22;22752;51.960;5.886;2023-04-12T08:01:24;10.10;99.90
36800;DHT22;22752;51.960;5.886;2023-04-12T08:03:49;10.10;99.90
36800;DHT22;22752;51.960;5.886;2023-04-12T08:06:15;10.30;99.90
36800;DHT22;22752;51.960;5.886;2023-04-12T08:08:41;10.40;99.90
36800;DHT22;22752;51.960;5.886;2023-04-12T08:11:07;10.60;99.90
36800;DHT22;22752;51.960;5.886;2023-04-12T08:13:33;10.60;99.90
36800;DHT22;22752;51.960;5.886;2023-04-12T08:15:59;10.60;99.90
36800;DHT22;22752;51.960;5.886;2023-04-12T08:18:25;10.70;99.90
36800;DHT22;22752;51.960;5.886;2023-04-12T08:20:51;10.70;99.90
36800;DHT22;22752;51.960;5.886;2023-04-12T08:23:16;10.70;99.90
36800;DHT22;22752;51.960;5.886;2023-04-12T08:25:42;10.80;99.90
36800;DHT22;22752;51.960;5.886;2023-04-12T08:28:08;10.80;99.90
36800;DHT22;22752;51.960;5.886;2023-04-12T08:30:34;10.90;99.90
36800;DHT22;22752;51.960;5.886;2023-04-12T08:33:00;11.00;99.90
36800;DHT22;22752;51.960;5.886;2023-04-12T08:35:25;11.10;99.90
36800;DHT22;22752;51.960;5.886;2023-04-12T08:37:51;11.30;99.90
36800;DHT22;22752;51.960;5.886;2023-04-12T08:40:17;11.40;99.90
36800;DHT22;22752;51.960;5.886;2023-04-12T08:42:43;11.40;99.90
36800;DHT22;22752;51.960;5.886;2023-04-12T08:45:10;11.40;99.90
36800;DHT22;22752;51.960;5.886;2023-04-12T08:47:41;11.40;99.90
36800;DHT22;22752;51.960;5.886;2023-04-12T08:50:08;11.40;99.90
36800;DHT22;22752;51.960;5.886;2023-04-12T08:52:35;11.40;99.90
36800;DHT22;22752;51.960;5.886;2023-04-12T08:55:02;11.50;99.90
36800;DHT22;22752;51.960;5.886;2023-04-12T08:57:28;11.50;99.90
36800;DHT22;22752;51.960;5.886;2023-04-12T08:59:54;11.50;99.90
36800;DHT22;22752;51.960;5.886;2023-04-12T09:02:21;11.50;99.90
36800;DHT22;22752;51.960;5.886;2023-04-12T09:04:50;11.60;99.90
36800;DHT22;22752;51.960;5.886;2023-04-12T09:07:21;11.70;99.90
36800;DHT22;22752;51.960;5.886;2023-04-12T09:09:55;11.70;99.90
36800;DHT22;22752;51.960;5.886;2023-04-12T09:12:21;11.70;99.90
36800;DHT22;22752;51.960;5.886;2023-04-12T09:15:07;11.80;99.90
36800;DHT22;22752;51.960;5.886;2023-04-12T09:17:34;11.90;99.90
36800;DHT22;22752;51.960;5.886;2023-04-12T09:20:21;11.90;99.90
36800;DHT22;22752;51.960;5.886;2023-04-12T09:22:48;12.10;99.90
36800;DHT22;22752;51.960;5.886;2023-04-12T09:25:14;12.30;99.90
36800;DHT22;22752;51.960;5.886;2023-04-12T09:27:51;12.40;99.90
36800;DHT22;22752;51.960;5.886;2023-04-12T09:30:19;12.60;99.90
36800;DHT22;22752;51.960;5.886;2023-04-12T09:32:45;12.70;99.90
36800;DHT22;22752;51.960;5.886;2023-04-12T09:35:13;12.80;99.90
36800;DHT22;22752;51.960;5.886;2023-04-12T09:37:39;12.90;99.90
36800;DHT22;22752;51.960;5.886;2023-04-12T09:40:06;13.00;99.90
36800;DHT22;22752;51.960;5.886;2023-04-12T09:42:33;13.40;99.90
36800;DHT22;22752;51.960;5.886;2023-04-12T09:44:59;13.60;99.90
36800;DHT22;22752;51.960;5.886;2023-04-12T09:47:37;13.70;99.90
36800;DHT22;22752;51.960;5.886;2023-04-12T09:50:07;13.90;99.90
36800;DHT22;22752;51.960;5.886;2023-04-12T09:52:37;14.00;99.90
36800;DHT22;22752;51.960;5.886;2023-04-12T09:55:08;14.20;99.90
36800;DHT22;22752;51.960;5.886;2023-04-12T09:57:37;14.30;99.90
36800;DHT22;22752;51.960;5.886;2023-04-12T10:00:06;14.50;99.90
36800;DHT22;22752;51.960;5.886;2023-04-12T10:02:42;14.60;99.90
36800;DHT22;22752;51.960;5.886;2023-04-12T10:05:12;14.70;99.90
36800;DHT22;22752;51.960;5.886;2023-04-12T10:07:39;14.70;99.90
36800;DHT22;22752;51.960;5.886;2023-04-12T10:10:07;14.70;99.90
36800;DHT22;22752;51.960;5.886;2023-04-12T10:12:35;14.70;99.90
36800;DHT22;22752;51.960;5.886;2023-04-12T10:15:05;14.80;99.90
36800;DHT22;22752;51.960;5.886;2023-04-12T10:17:33;14.70;99.90
36800;DHT22;22752;51.960;5.886;2023-04-12T10:19:59;14.60;99.90
36800;DHT22;22752;51.960;5.886;2023-04-12T10:22:25;14.60;99.90
36800;DHT22;22752;51.960;5.886;2023-04-12T10:24:51;14.60;99.90
36800;DHT22;22752;51.960;5.886;2023-04-12T10:27:26;14.50;99.90
36800;DHT22;22752;51.960;5.886;2023-04-12T10:29:52;14.60;99.90
36800;DHT22;22752;51.960;5.886;2023-04-12T10:32:23;14.70;99.90
36800;DHT22;22752;51.960;5.886;2023-04-12T10:34:57;14.80;99.90
36800;DHT22;22752;51.960;5.886;2023-04-12T10:37:58;14.90;99.90
36800;DHT22;22752;51.960;5.886;2023-04-12T10:40:25;15.10;99.90
36800;DHT22;22752;51.960;5.886;2023-04-12T10:43:26;15.20;99.90
36800;DHT22;22752;51.960;5.886;2023-04-12T10:45:53;15.50;99.90
36800;DHT22;22752;51.960;5.886;2023-04-12T10:58:59;14.60;99.90
36800;DHT22;22752;51.960;5.886;2023-04-12T11:01:26;14.50;99.90
36800;DHT22;22752;51.960;5.886;2023-04-12T11:04:11;14.30;99.90
36800;DHT22;22752;51.960;5.886;2023-04-12T11:11:47;14.30;99.90
36800;DHT22;22752;51.960;5.886;2023-04-12T11:14:14;14.30;99.90
36800;DHT22;22752;51.960;5.886;2023-04-12T11:17:21;14.50;99.90
36800;DHT22;22752;51.960;5.886;2023-04-12T11:19:52;14.60;99.90
36800;DHT22;22752;51.960;5.886;2023-04-12T11:22:21;14.80;99.90
36800;DHT22;22752;51.960;5.886;2023-04-12T11:24:49;14.90;99.90
36800;DHT22;22752;51.960;5.886;2023-04-12T11:27:18;15.00;99.90
36800;DHT22;22752;51.960;5.886;2023-04-12T11:29:46;15.00;99.90
36800;DHT22;22752;51.960;5.886;2023-04-12T11:32:13;14.90;99.90
36800;DHT22;22752;51.960;5.886;2023-04-12T11:34:39;14.90;99.90
36800;DHT22;22752;51.960;5.886;2023-04-12T11:37:06;14.70;99.90
36800;DHT22;22752;51.960;5.886;2023-04-12T11:39:34;14.60;99.90
36800;DHT22;22752;51.960;5.886;2023-04-12T11:41:59;14.40;99.90
36800;DHT22;22752;51.960;5.886;2023-04-12T11:44:28;14.40;99.90
36800;DHT22;22752;51.960;5.886;2023-04-12T11:46:54;14.50;99.90
36800;DHT22;22752;51.960;5.886;2023-04-12T11:49:21;14.60;99.90
36800;DHT22;22752;51.960;5.886;2023-04-12T11:51:47;14.80;99.90
36800;DHT22;22752;51.960;5.886;2023-04-12T11:54:13;14.90;99.90
36800;DHT22;22752;51.960;5.886;2023-04-12T11:56:40;14.80;99.90
36800;DHT22;22752;51.960;5.886;2023-04-12T11:59:06;14.70;99.90
36800;DHT22;22752;51.960;5.886;2023-04-12T12:01:36;14.60;99.90
36800;DHT22;22752;51.960;5.886;2023-04-12T12:04:02;14.50;99.90
36800;DHT22;22752;51.960;5.886;2023-04-12T12:06:29;14.40;99.90
36800;DHT22;22752;51.960;5.886;2023-04-12T12:08:56;14.40;99.90
36800;DHT22;22752;51.960;5.886;2023-04-12T12:11:23;14.60;99.90
36800;DHT22;22752;51.960;5.886;2023-04-12T12:13:55;14.70;99.90
36800;DHT22;22752;51.960;5.886;2023-04-12T12:16:28;14.80;99.90
36800;DHT22;22752;51.960;5.886;2023-04-12T12:18:54;14.70;99.90
36800;DHT22;22752;51.960;5.886;2023-04-12T12:21:20;14.50;99.90
36800;DHT22;22752;51.960;5.886;2023-04-12T12:23:47;14.30;99.90
36800;DHT22;22752;51.960;5.886;2023-04-12T12:26:24;14.20;99.90
36800;DHT22;22752;51.960;5.886;2023-04-12T12:28:51;14.10;99.90
36800;DHT22;22752;51.960;5.886;2023-04-12T12:31:25;14.20;99.90
36800;DHT22;22752;51.960;5.886;2023-04-12T12:33:59;14.50;99.90
36800;DHT22;22752;51.960;5.886;2023-04-12T12:36:32;14.70;99.90
36800;DHT22;22752;51.960;5.886;2023-04-12T12:39:09;14.80;99.90
36800;DHT22;22752;51.960;5.886;2023-04-12T12:41:35;15.00;99.90
36800;DHT22;22752;51.960;5.886;2023-04-12T12:44:02;14.90;99.90
36800;DHT22;22752;51.960;5.886;2023-04-12T12:46:28;14.90;99.90
36800;DHT22;22752;51.960;5.886;2023-04-12T12:48:54;14.90;99.90
36800;DHT22;22752;51.960;5.886;2023-04-12T12:51:20;15.00;99.90
36800;DHT22;22752;51.960;5.886;2023-04-12T12:53:46;15.10;99.90
36800;DHT22;22752;51.960;5.886;2023-04-12T12:56:12;15.20;99.90
36800;DHT22;22752;51.960;5.886;2023-04-12T12:58:41;15.10;99.90
36800;DHT22;22752;51.960;5.886;2023-04-12T13:01:07;15.10;99.90
36800;DHT22;22752;51.960;5.886;2023-04-12T13:03:33;14.90;99.90
36800;DHT22;22752;51.960;5.886;2023-04-12T13:05:59;14.80;99.40
36800;DHT22;22752;51.960;5.886;2023-04-12T13:08:25;14.60;99.30
36800;DHT22;22752;51.960;5.886;2023-04-12T13:10:51;14.40;97.40
36800;DHT22;22752;51.960;5.886;2023-04-12T13:13:18;14.10;97.00
36800;DHT22;22752;51.960;5.886;2023-04-12T13:15:44;13.90;96.90
36800;DHT22;22752;51.960;5.886;2023-04-12T13:18:12;13.80;97.50
36800;DHT22;22752;51.960;5.886;2023-04-12T13:20:40;13.80;98.10
36800;DHT22;22752;51.960;5.886;2023-04-12T13:23:06;13.80;97.50
36800;DHT22;22752;51.960;5.886;2023-04-12T13:25:32;13.80;98.20
36800;DHT22;22752;51.960;5.886;2023-04-12T13:27:58;13.80;97.10
36800;DHT22;22752;51.960;5.886;2023-04-12T13:30:23;13.70;96.90
36800;DHT22;22752;51.960;5.886;2023-04-12T13:32:49;13.70;97.30
36800;DHT22;22752;51.960;5.886;2023-04-12T13:35:15;13.60;97.40
36800;DHT22;22752;51.960;5.886;2023-04-12T13:37:40;13.60;97.80
36800;DHT22;22752;51.960;5.886;2023-04-12T13:40:07;13.70;97.30
36800;DHT22;22752;51.960;5.886;2023-04-12T13:42:33;13.70;97.30
36800;DHT22;22752;51.960;5.886;2023-04-12T13:44:58;13.70;97.20
36800;DHT22;22752;51.960;5.886;2023-04-12T13:47:25;13.70;97.70
36800;DHT22;22752;51.960;5.886;2023-04-12T13:49:51;13.60;98.40
36800;DHT22;22752;51.960;5.886;2023-04-12T13:52:17;13.60;98.40
36800;DHT22;22752;51.960;5.886;2023-04-12T13:54:42;13.60;99.00
36800;DHT22;22752;51.960;5.886;2023-04-12T13:57:08;13.60;99.10
36800;DHT22;22752;51.960;5.886;2023-04-12T13:59:34;13.60;98.60
36800;DHT22;22752;51.960;5.886;2023-04-12T14:02:01;13.60;98.80
36800;DHT22;22752;51.960;5.886;2023-04-12T14:04:28;13.60;99.50
36800;DHT22;22752;51.960;5.886;2023-04-12T14:06:53;13.60;99.70
36800;DHT22;22752;51.960;5.886;2023-04-12T14:09:29;13.50;99.50
36800;DHT22;22752;51.960;5.886;2023-04-12T14:11:57;13.40;99.30
36800;DHT22;22752;51.960;5.886;2023-04-12T14:14:24;13.20;99.70
36800;DHT22;22752;51.960;5.886;2023-04-12T14:16:51;13.00;99.90
36800;DHT22;22752;51.960;5.886;2023-04-12T14:19:18;12.90;99.90
36800;DHT22;22752;51.960;5.886;2023-04-12T14:21:47;12.90;99.90
36800;DHT22;22752;51.960;5.886;2023-04-12T14:24:13;12.80;99.90
36800;DHT22;22752;51.960;5.886;2023-04-12T14:26:39;12.80;99.90
36800;DHT22;22752;51.960;5.886;2023-04-12T14:29:08;12.70;99.90
36800;DHT22;22752;51.960;5.886;2023-04-12T14:31:34;12.70;99.90
36800;DHT22;22752;51.960;5.886;2023-04-12T14:34:01;12.60;99.90
36800;DHT22;22752;51.960;5.886;2023-04-12T14:36:27;12.50;99.90
36800;DHT22;22752;51.960;5.886;2023-04-12T14:38:54;12.60;99.90
36800;DHT22;22752;51.960;5.886;2023-04-12T14:41:20;12.60;99.90
36800;DHT22;22752;51.960;5.886;2023-04-12T14:43:45;12.60;99.90
36800;DHT22;22752;51.960;5.886;2023-04-12T14:46:11;12.60;99.90
36800;DHT22;22752;51.960;5.886;2023-04-12T14:48:37;12.50;99.90
36800;DHT22;22752;51.960;5.886;2023-04-12T14:51:03;12.50;99.90
36800;DHT22;22752;51.960;5.886;2023-04-12T14:53:29;12.60;99.90
36800;DHT22;22752;51.960;5.886;2023-04-12T14:55:55;12.60;99.90
36800;DHT22;22752;51.960;5.886;2023-04-12T14:58:21;12.50;99.90
36800;DHT22;22752;51.960;5.886;2023-04-12T15:00:46;12.50;99.90
36800;DHT22;22752;51.960;5.886;2023-04-12T15:03:14;12.60;99.90
36800;DHT22;22752;51.960;5.886;2023-04-12T15:05:40;12.60;99.90
36800;DHT22;22752;51.960;5.886;2023-04-12T15:08:06;12.50;99.90
36800;DHT22;22752;51.960;5.886;2023-04-12T15:10:31;12.40;99.90
36800;DHT22;22752;51.960;5.886;2023-04-12T15:12:57;12.30;99.90
36800;DHT22;22752;51.960;5.886;2023-04-12T15:15:23;12.20;99.90
36800;DHT22;22752;51.960;5.886;2023-04-12T15:17:49;12.10;99.90
36800;DHT22;22752;51.960;5.886;2023-04-12T15:20:15;11.90;99.90
36800;DHT22;22752;51.960;5.886;2023-04-12T15:22:42;11.80;99.90
36800;DHT22;22752;51.960;5.886;2023-04-12T15:25:09;11.50;99.90
36800;DHT22;22752;51.960;5.886;2023-04-12T15:27:35;11.10;99.90
36800;DHT22;22752;51.960;5.886;2023-04-12T15:30:03;10.80;99.90
36800;DHT22;22752;51.960;5.886;2023-04-12T15:32:29;10.50;99.90
36800;DHT22;22752;51.960;5.886;2023-04-12T15:34:57;10.20;99.90
36800;DHT22;22752;51.960;5.886;2023-04-12T15:37:25;9.90;99.90
36800;DHT22;22752;51.960;5.886;2023-04-12T15:39:51;9.70;99.90
36800;DHT22;22752;51.960;5.886;2023-04-12T15:42:17;9.50;99.90
36800;DHT22;22752;51.960;5.886;2023-04-12T15:44:43;9.40;99.90
36800;DHT22;22752;51.960;5.886;2023-04-12T15:47:10;9.40;99.90
36800;DHT22;22752;51.960;5.886;2023-04-12T15:49:36;9.40;99.90
36800;DHT22;22752;51.960;5.886;2023-04-12T15:52:02;9.40;99.90
36800;DHT22;22752;51.960;5.886;2023-04-12T15:54:28;9.50;99.90
36800;DHT22;22752;51.960;5.886;2023-04-12T15:56:54;9.60;99.90
36800;DHT22;22752;51.960;5.886;2023-04-12T15:59:19;9.70;99.90
36800;DHT22;22752;51.960;5.886;2023-04-12T16:01:46;9.80;99.90
36800;DHT22;22752;51.960;5.886;2023-04-12T16:04:13;9.90;99.90
36800;DHT22;22752;51.960;5.886;2023-04-12T16:06:40;9.90;99.90